sensor_id;sensor_type;location;lat;lon;timestamp;temperature;humidity
16267;DHT22;8241;48.786;9.250;2022-10-30T00:00:23;15.50;99.90
16267;DHT22;8241;48.786;9.250;2022-10-30T00:05:46;15.40;99.90
16267;DHT22;8241;48.786;9.250;2022-10-30T00:08:28;15.40;99.90
16267;DHT22;8241;48.786;9.250;2022-10-30T00:10:55;15.40;99.90
16267;DHT22;8241;48.786;9.250;2022-10-30T00:13:41;15.40;99.90
16267;DHT22;8241;48.786;9.250;2022-10-30T00:16:08;15.30;99.90
16267;DHT22;8241;48.786;9.250;2022-10-30T00:18:35;15.30;99.90
16267;DHT22;8241;48.786;9.250;2022-10-30T00:21:07;15.30;99.90
16267;DHT22;8241;48.786;9.250;2022-10-30T00:23:36;15.30;99.90
16267;DHT22;8241;48.786;9.250;2022-10-30T00:26:16;15.30;99.90
16267;DHT22;8241;48.786;9.250;2022-10-30T00:28:51;15.30;99.90
16267;DHT22;8241;48.786;9.250;2022-10-30T00:31:29;15.30;99.90
16267;DHT22;8241;48.786;9.250;2022-10-30T00:37:01;15.30;99.90
16267;DHT22;8241;48.786;9.250;2022-10-30T00:39:27;15.30;99.90
16267;DHT22;8241;48.786;9.250;2022-10-30T00:41:54;15.20;99.90
16267;DHT22;8241;48.786;9.250;2022-10-30T00:44:34;15.20;99.90
16267;DHT22;8241;48.786;9.250;2022-10-30T00:49:54;15.20;99.90
16267;DHT22;8241;48.786;9.250;2022-10-30T00:52:24;15.10;99.90
16267;DHT22;8241;48.786;9.250;2022-10-30T00:54:51;15.10;99.90
16267;DHT22;8241;48.786;9.250;2022-10-30T00:57:19;15.10;99.90
16267;DHT22;8241;48.786;9.250;2022-10-30T01:02:25;15.10;99.90
16267;DHT22;8241;48.786;9.250;2022-10-30T01:07:36;15.10;99.90
16267;DHT22;8241;48.786;9.250;2022-10-30T01:10:03;15.10;99.90
16267;DHT22;8241;48.786;9.250;2022-10-30T01:12:30;15.10;99.90
16267;DHT22;8241;48.786;9.250;2022-10-30T01:14:57;15.10;99.90
16267;DHT22;8241;48.786;9.250;2022-10-30T01:20:27;15.10;99.90
16267;DHT22;8241;48.786;9.250;2022-10-30T01:23:08;15.10;99.90
16267;DHT22;8241;48.786;9.250;2022-10-30T01:25:39;15.10;99.90
16267;DHT22;8241;48.786;9.250;2022-10-30T01:28:12;15.10;99.90
16267;DHT22;8241;48.786;9.250;2022-10-30T01:33:39;15.10;99.90
16267;DHT22;8241;48.786;9.250;2022-10-30T01:36:12;15.10;99.90
16267;DHT22;8241;48.786;9.250;2022-10-30T01:38:46;15.00;99.90
16267;DHT22;8241;48.786;9.250;2022-10-30T01:41:13;15.00;99.90
16267;DHT22;8241;48.786;9.250;2022-10-30T01:43:42;15.10;99.90
16267;DHT22;8241;48.786;9.250;2022-10-30T01:46:15;15.00;99.90
16267;DHT22;8241;48.786;9.250;2022-10-30T01:55:21;15.00;99.90
16267;DHT22;8241;48.786;9.250;2022-10-30T01:58:07;14.90;99.90
16267;DHT22;8241;48.786;9.250;2022-10-30T02:00:37;14.90;99.90
16267;DHT22;8241;48.786;9.250;2022-10-30T02:03:04;14.90;99.90
16267;DHT22;8241;48.786;9.250;2022-10-30T02:05:31;14.80;99.90
16267;DHT22;8241;48.786;9.250;2022-10-30T02:08:01;14.80;99.90
16267;DHT22;8241;48.786;9.250;2022-10-30T02:10:30;14.80;99.90
16267;DHT22;8241;48.786;9.250;2022-10-30T02:12:59;14.70;99.90
16267;DHT22;8241;48.786;9.250;2022-10-30T02:15:26;14.70;99.90
16267;DHT22;8241;48.786;9.250;2022-10-30T02:17:53;14.70;99.90
16267;DHT22;8241;48.786;9.250;2022-10-30T02:20:21;14.60;99.90
16267;DHT22;8241;48.786;9.250;2022-10-30T02:22:48;14.60;99.90
16267;DHT22;8241;48.786;9.250;2022-10-30T02:25:16;14.50;99.90
16267;DHT22;8241;48.786;9.250;2022-10-30T02:27:43;14.50;99.90
16267;DHT22;8241;48.786;9.250;2022-10-30T02:30:11;14.50;99.90
16267;DHT22;8241;48.786;9.250;2022-10-30T02:32:38;14.50;99.90
16267;DHT22;8241;48.786;9.250;2022-10-30T02:35:22;14.50;99.90
16267;DHT22;8241;48.786;9.250;2022-10-30T02:37:51;14.50;99.90
16267;DHT22;8241;48.786;9.250;2022-10-30T02:40:17;14.50;99.90
16267;DHT22;8241;48.786;9.250;2022-10-30T02:42:46;14.40;99.90
16267;DHT22;8241;48.786;9.250;2022-10-30T02:45:16;14.50;99.90
16267;DHT22;8241;48.786;9.250;2022-10-30T02:50:32;14.50;99.90
16267;DHT22;8241;48.786;9.250;2022-10-30T02:52:58;14.50;99.90
16267;DHT22;8241;48.786;9.250;2022-10-30T02:55:26;14.50;99.90
16267;DHT22;8241;48.786;9.250;2022-10-30T02:57:53;14.50;99.90
16267;DHT22;8241;48.786;9.250;2022-10-30T03:00:20;14.50;99.90
16267;DHT22;8241;48.786;9.250;2022-10-30T03:02:47;14.50;99.90
16267;DHT22;8241;48.786;9.250;2022-10-30T03:08:04;14.40;99.90
16267;DHT22;8241;48.786;9.250;2022-10-30T03:10:30;14.50;99.90
16267;DHT22;8241;48.786;9.250;2022-10-30T03:12:58;14.50;99.90
16267;DHT22;8241;48.786;9.250;2022-10-30T03:15:24;14.40;99.90
16267;DHT22;8241;48.786;9.250;2022-10-30T03:17:51;14.40;99.90
16267;DHT22;8241;48.786;9.250;2022-10-30T03:20:18;14.40;99.90
16267;DHT22;8241;48.786;9.250;2022-10-30T03:22:45;14.30;99.90
16267;DHT22;8241;48.786;9.250;2022-10-30T03:25:13;14.30;99.90
16267;DHT22;8241;48.786;9.250;2022-10-30T03:27:40;14.30;99.90
16267;DHT22;8241;48.786;9.250;2022-10-30T03:30:07;14.30;99.90
16267;DHT22;8241;48.786;9.250;2022-10-30T03:32:39;14.20;99.90
16267;DHT22;8241;48.786;9.250;2022-10-30T03:35:06;14.20;99.90
16267;DHT22;8241;48.786;9.250;2022-10-30T03:37:33;14.20;99.90
16267;DHT22;8241;48.786;9.250;2022-10-30T03:39:59;14.20;99.90
16267;DHT22;8241;48.786;9.250;2022-10-30T03:42:27;14.20;99.90
16267;DHT22;8241;48.786;9.250;2022-10-30T03:44:55;14.20;99.90
16267;DHT22;8241;48.786;9.250;2022-10-30T03:47:22;14.20;99.90
16267;DHT22;8241;48.786;9.250;2022-10-30T03:49:49;14.20;99.90
16267;DHT22;8241;48.786;9.250;2022-10-30T03:52:18;14.10;99.90
16267;DHT22;8241;48.786;9.250;2022-10-30T03:57:57;14.10;99.90
16267;DHT22;8241;48.786;9.250;2022-10-30T04:03:32;14.00;99.90
16267;DHT22;8241;48.786;9.250;2022-10-30T04:11:56;13.90;99.90
16267;DHT22;8241;48.786;9.250;2022-10-30T04:14:33;13.80;99.90
16267;DHT22;8241;48.786;9.250;2022-10-30T04:17:02;13.80;99.90
16267;DHT22;8241;48.786;9.250;2022-10-30T04:19:30;13.70;99.90
16267;DHT22;8241;48.786;9.250;2022-10-30T04:22:04;13.80;99.90
16267;DHT22;8241;48.786;9.250;2022-10-30T04:24:31;13.70;99.90
16267;DHT22;8241;48.786;9.250;2022-10-30T04:26:58;13.80;99.90
16267;DHT22;8241;48.786;9.250;2022-10-30T04:29:25;13.80;99.90
16267;DHT22;8241;48.786;9.250;2022-10-30T04:31:54;13.80;99.90
16267;DHT22;8241;48.786;9.250;2022-10-30T04:34:21;13.80;99.90
16267;DHT22;8241;48.786;9.250;2022-10-30T04:36:48;13.70;99.90
16267;DHT22;8241;48.786;9.250;2022-10-30T04:39:15;13.70;99.90
16267;DHT22;8241;48.786;9.250;2022-10-30T04:41:42;13.80;99.90
16267;DHT22;8241;48.786;9.250;2022-10-30T04:44:16;13.70;99.90
16267;DHT22;8241;48.786;9.250;2022-10-30T04:46:50;13.70;99.90
16267;DHT22;8241;48.786;9.250;2022-10-30T04:49:18;13.70;99.90
16267;DHT22;8241;48.786;9.250;2022-10-30T04:51:53;13.70;99.90
16267;DHT22;8241;48.786;9.250;2022-10-30T04:54:21;13.70;99.90
16267;DHT22;8241;48.786;9.250;2022-10-30T04:56:48;13.70;99.90
16267;DHT22;8241;48.786;9.250;2022-10-30T04:59:14;13.60;99.90
16267;DHT22;8241;48.786;9.250;2022-10-30T05:04:15;13.60;99.90
16267;DHT22;8241;48.786;9.250;2022-10-30T05:06:43;13.60;99.90
16267;DHT22;8241;48.786;9.250;2022-10-30T05:09:12;13.60;99.90
16267;DHT22;8241;48.786;9.250;2022-10-30T05:11:39;13.50;99.90
16267;DHT22;8241;48.786;9.250;2022-10-30T05:14:07;13.50;99.90
16267;DHT22;8241;48.786;9.250;2022-10-30T05:16:33;13.50;99.90
16267;DHT22;8241;48.786;9.250;2022-10-30T05:19:04;13.50;99.90
16267;DHT22;8241;48.786;9.250;2022-10-30T05:21:33;13.40;99.90
16267;DHT22;8241;48.786;9.250;2022-10-30T05:26:51;13.40;99.90
16267;DHT22;8241;48.786;9.250;2022-10-30T05:29:18;13.30;99.90
16267;DHT22;8241;48.786;9.250;2022-10-30T05:31:44;13.30;99.90
16267;DHT22;8241;48.786;9.250;2022-10-30T05:34:29;13.30;99.90
16267;DHT22;8241;48.786;9.250;2022-10-30T05:40:01;13.30;99.90
16267;DHT22;8241;48.786;9.250;2022-10-30T05:45:13;13.30;99.90
16267;DHT22;8241;48.786;9.250;2022-10-30T05:47:42;13.30;99.90
16267;DHT22;8241;48.786;9.250;2022-10-30T05:50:10;13.30;99.90
16267;DHT22;8241;48.786;9.250;2022-10-30T05:52:37;13.30;99.90
16267;DHT22;8241;48.786;9.250;2022-10-30T06:00:46;13.20;99.90
16267;DHT22;8241;48.786;9.250;2022-10-30T06:06:21;13.20;99.90
16267;DHT22;8241;48.786;9.250;2022-10-30T06:08:48;13.10;99.90
16267;DHT22;8241;48.786;9.250;2022-10-30T06:14:03;13.20;99.90
16267;DHT22;8241;48.786;9.250;2022-10-30T06:16:38;13.20;99.90
16267;DHT22;8241;48.786;9.250;2022-10-30T06:19:31;13.20;99.90
16267;DHT22;8241;48.786;9.250;2022-10-30T06:22:21;13.20;99.90
16267;DHT22;8241;48.786;9.250;2022-10-30T06:24:55;13.20;99.90
16267;DHT22;8241;48.786;9.250;2022-10-30T06:27:44;13.30;99.90
16267;DHT22;8241;48.786;9.250;2022-10-30T06:30:11;13.20;99.90
16267;DHT22;8241;48.786;9.250;2022-10-30T06:35:10;13.20;99.90
16267;DHT22;8241;48.786;9.250;2022-10-30T06:37:52;13.20;99.90
16267;DHT22;8241;48.786;9.250;2022-10-30T06:40:27;13.20;99.90
16267;DHT22;8241;48.786;9.250;2022-10-30T06:43:20;13.20;99.90
16267;DHT22;8241;48.786;9.250;2022-10-30T06:46:00;13.20;99.90
16267;DHT22;8241;48.786;9.250;2022-10-30T06:48:29;13.20;99.90
16267;DHT22;8241;48.786;9.250;2022-10-30T06:50:58;13.20;99.90
16267;DHT22;8241;48.786;9.250;2022-10-30T06:53:26;13.20;99.90
16267;DHT22;8241;48.786;9.250;2022-10-30T06:59:19;13.20;99.90
16267;DHT22;8241;48.786;9.250;2022-10-30T07:02:15;13.30;99.90
16267;DHT22;8241;48.786;9.250;2022-10-30T07:04:51;13.30;99.90
16267;DHT22;8241;48.786;9.250;2022-10-30T07:07:36;13.30;99.90
16267;DHT22;8241;48.786;9.250;2022-10-30T07:10:06;13.30;99.90
16267;DHT22;8241;48.786;9.250;2022-10-30T07:13:08;13.30;99.90
16267;DHT22;8241;48.786;9.250;2022-10-30T07:15:44;13.40;99.90
16267;DHT22;8241;48.786;9.250;2022-10-30T07:18:34;13.40;99.90
16267;DHT22;8241;48.786;9.250;2022-10-30T07:21:13;13.50;99.90
16267;DHT22;8241;48.786;9.250;2022-10-30T07:23:47;13.50;99.90
16267;DHT22;8241;48.786;9.250;2022-10-30T07:35:58;13.70;99.90
16267;DHT22;8241;48.786;9.250;2022-10-30T07:39:03;13.70;99.90
16267;DHT22;8241;48.786;9.250;2022-10-30T07:41:38;13.70;99.90
16267;DHT22;8241;48.786;9.250;2022-10-30T07:47:39;13.70;99.90
16267;DHT22;8241;48.786;9.250;2022-10-30T07:50:12;13.80;99.90
16267;DHT22;8241;48.786;9.250;2022-10-30T07:52:39;13.80;99.90
16267;DHT22;8241;48.786;9.250;2022-10-30T07:55:09;13.90;99.90
16267;DHT22;8241;48.786;9.250;2022-10-30T08:00:52;14.00;99.90
16267;DHT22;8241;48.786;9.250;2022-10-30T08:03:40;14.10;99.90
16267;DHT22;8241;48.786;9.250;2022-10-30T08:06:15;14.20;99.90
16267;DHT22;8241;48.786;9.250;2022-10-30T08:08:43;14.20;99.90
16267;DHT22;8241;48.786;9.250;2022-10-30T08:11:20;14.20;99.90
16267;DHT22;8241;48.786;9.250;2022-10-30T08:13:47;14.30;99.90
16267;DHT22;8241;48.786;9.250;2022-10-30T08:16:32;14.40;99.90
16267;DHT22;8241;48.786;9.250;2022-10-30T08:18:59;14.40;99.90
16267;DHT22;8241;48.786;9.250;2022-10-30T08:21:26;14.50;99.90
16267;DHT22;8241;48.786;9.250;2022-10-30T08:26:35;14.70;99.90
16267;DHT22;8241;48.786;9.250;2022-10-30T08:29:02;14.80;99.90
16267;DHT22;8241;48.786;9.250;2022-10-30T08:31:29;14.80;99.90
16267;DHT22;8241;48.786;9.250;2022-10-30T08:34:26;14.90;99.90
16267;DHT22;8241;48.786;9.250;2022-10-30T08:36:56;15.00;99.90
16267;DHT22;8241;48.786;9.250;2022-10-30T08:39:23;15.10;99.90
16267;DHT22;8241;48.786;9.250;2022-10-30T08:42:20;15.20;99.90
16267;DHT22;8241;48.786;9.250;2022-10-30T08:44:48;15.20;99.90
16267;DHT22;8241;48.786;9.250;2022-10-30T08:47:56;15.40;99.90
16267;DHT22;8241;48.786;9.250;2022-10-30T08:50:24;15.50;99.90
16267;DHT22;8241;48.786;9.250;2022-10-30T08:52:51;15.60;99.90
16267;DHT22;8241;48.786;9.250;2022-10-30T08:55:18;15.70;99.90
16267;DHT22;8241;48.786;9.250;2022-10-30T08:57:46;15.70;99.90
16267;DHT22;8241;48.786;9.250;2022-10-30T09:00:13;15.80;99.90
16267;DHT22;8241;48.786;9.250;2022-10-30T09:03:02;15.80;99.90
16267;DHT22;8241;48.786;9.250;2022-10-30T09:05:32;15.90;99.90
16267;DHT22;8241;48.786;9.250;2022-10-30T09:08:18;16.00;99.90
16267;DHT22;8241;48.786;9.250;2022-10-30T09:11:10;16.10;99.90
16267;DHT22;8241;48.786;9.250;2022-10-30T09:13:38;16.30;99.90
16267;DHT22;8241;48.786;9.250;2022-10-30T09:16:05;16.30;99.90
16267;DHT22;8241;48.786;9.250;2022-10-30T09:18:36;16.40;99.90
16267;DHT22;8241;48.786;9.250;2022-10-30T09:21:03;16.50;99.90
16267;DHT22;8241;48.786;9.250;2022-10-30T09:23:34;16.70;99.90
16267;DHT22;8241;48.786;9.250;2022-10-30T09:26:19;16.80;99.90
16267;DHT22;8241;48.786;9.250;2022-10-30T09:28:56;17.10;99.90
16267;DHT22;8241;48.786;9.250;2022-10-30T09:31:41;17.40;99.90
16267;DHT22;8241;48.786;9.250;2022-10-30T09:34:12;17.80;99.90
16267;DHT22;8241;48.786;9.250;2022-10-30T09:36:43;18.30;99.90
16267;DHT22;8241;48.786;9.250;2022-10-30T09:39:13;18.70;99.90
16267;DHT22;8241;48.786;9.250;2022-10-30T09:41:45;19.30;99.90
16267;DHT22;8241;48.786;9.250;2022-10-30T09:44:24;19.70;99.40
16267;DHT22;8241;48.786;9.250;2022-10-30T09:46:57;20.20;98.90
16267;DHT22;8241;48.786;9.250;2022-10-30T09:49:36;20.40;98.70
16267;DHT22;8241;48.786;9.250;2022-10-30T09:54:43;21.40;96.50
16267;DHT22;8241;48.786;9.250;2022-10-30T09:57:17;21.80;96.10
16267;DHT22;8241;48.786;9.250;2022-10-30T10:06:26;23.10;93.70
16267;DHT22;8241;48.786;9.250;2022-10-30T10:09:13;23.50;93.00
16267;DHT22;8241;48.786;9.250;2022-10-30T10:14:43;23.80;92.40
16267;DHT22;8241;48.786;9.250;2022-10-30T10:25:52;24.00;92.00
16267;DHT22;8241;48.786;9.250;2022-10-30T10:28:34;23.60;92.70
16267;DHT22;8241;48.786;9.250;2022-10-30T10:31:05;23.20;93.70
16267;DHT22;8241;48.786;9.250;2022-10-30T10:33:46;22.80;93.40
16267;DHT22;8241;48.786;9.250;2022-10-30T10:36:26;22.50;94.10
16267;DHT22;8241;48.786;9.250;2022-10-30T10:39:05;22.40;94.60
16267;DHT22;8241;48.786;9.250;2022-10-30T10:41:43;22.20;94.70
16267;DHT22;8241;48.786;9.250;2022-10-30T10:44:16;22.00;94.80
16267;DHT22;8241;48.786;9.250;2022-10-30T10:46:52;21.80;95.30
16267;DHT22;8241;48.786;9.250;2022-10-30T10:57:42;22.00;95.00
16267;DHT22;8241;48.786;9.250;2022-10-30T11:03:05;22.20;94.50
16267;DHT22;8241;48.786;9.250;2022-10-30T11:05:49;22.50;94.00
16267;DHT22;8241;48.786;9.250;2022-10-30T11:08:17;22.70;94.50
16267;DHT22;8241;48.786;9.250;2022-10-30T11:10:45;22.90;93.90
16267;DHT22;8241;48.786;9.250;2022-10-30T11:13:15;23.00;93.60
16267;DHT22;8241;48.786;9.250;2022-10-30T11:15:46;23.20;92.90
16267;DHT22;8241;48.786;9.250;2022-10-30T11:18:15;23.00;93.10
16267;DHT22;8241;48.786;9.250;2022-10-30T11:20:43;22.90;93.70
16267;DHT22;8241;48.786;9.250;2022-10-30T11:26:02;23.20;93.30
16267;DHT22;8241;48.786;9.250;2022-10-30T11:28:41;23.50;92.70
16267;DHT22;8241;48.786;9.250;2022-10-30T11:31:19;23.50;92.70
16267;DHT22;8241;48.786;9.250;2022-10-30T11:33:50;23.60;92.60
16267;DHT22;8241;48.786;9.250;2022-10-30T11:36:17;23.90;92.70
16267;DHT22;8241;48.786;9.250;2022-10-30T11:38:44;23.70;92.90
16267;DHT22;8241;48.786;9.250;2022-10-30T11:41:11;23.60;92.60
16267;DHT22;8241;48.786;9.250;2022-10-30T11:43:40;23.40;93.50
16267;DHT22;8241;48.786;9.250;2022-10-30T11:49:00;23.40;93.00
16267;DHT22;8241;48.786;9.250;2022-10-30T11:51:29;23.30;92.90
16267;DHT22;8241;48.786;9.250;2022-10-30T11:53:56;23.30;93.20
16267;DHT22;8241;48.786;9.250;2022-10-30T11:56:24;23.30;93.40
16267;DHT22;8241;48.786;9.250;2022-10-30T11:58:53;23.30;93.20
16267;DHT22;8241;48.786;9.250;2022-10-30T12:01:21;23.20;93.30
16267;DHT22;8241;48.786;9.250;2022-10-30T12:03:48;23.20;93.60
16267;DHT22;8241;48.786;9.250;2022-10-30T12:06:16;23.20;93.70
16267;DHT22;8241;48.786;9.250;2022-10-30T12:08:56;23.70;93.70
16267;DHT22;8241;48.786;9.250;2022-10-30T12:11:24;24.20;92.80
16267;DHT22;8241;48.786;9.250;2022-10-30T12:13:57;24.30;92.30
16267;DHT22;8241;48.786;9.250;2022-10-30T12:16:24;24.40;92.50
16267;DHT22;8241;48.786;9.250;2022-10-30T12:24:31;23.90;93.50
16267;DHT22;8241;48.786;9.250;2022-10-30T12:27:00;23.80;93.60
16267;DHT22;8241;48.786;9.250;2022-10-30T12:29:36;24.00;93.90
16267;DHT22;8241;48.786;9.250;2022-10-30T12:32:04;24.20;93.50
16267;DHT22;8241;48.786;9.250;2022-10-30T12:34:37;24.50;93.20
16267;DHT22;8241;48.786;9.250;2022-10-30T12:37:10;24.80;92.70
16267;DHT22;8241;48.786;9.250;2022-10-30T12:39:56;24.90;92.50
16267;DHT22;8241;48.786;9.250;2022-10-30T12:42:25;25.00;92.70
16267;DHT22;8241;48.786;9.250;2022-10-30T12:51:00;24.90;92.10
16267;DHT22;8241;48.786;9.250;2022-10-30T12:56:17;25.20;92.10
16267;DHT22;8241;48.786;9.250;2022-10-30T12:58:55;25.20;91.80
16267;DHT22;8241;48.786;9.250;2022-10-30T13:01:24;25.00;92.20
16267;DHT22;8241;48.786;9.250;2022-10-30T13:03:52;25.10;92.20
16267;DHT22;8241;48.786;9.250;2022-10-30T13:06:26;25.10;92.10
16267;DHT22;8241;48.786;9.250;2022-10-30T13:09:02;25.40;92.00
16267;DHT22;8241;48.786;9.250;2022-10-30T13:14:26;26.00;91.30
16267;DHT22;8241;48.786;9.250;2022-10-30T13:16:54;26.30;91.00
16267;DHT22;8241;48.786;9.250;2022-10-30T13:19:38;26.20;90.80
16267;DHT22;8241;48.786;9.250;2022-10-30T13:22:16;26.20;90.60
16267;DHT22;8241;48.786;9.250;2022-10-30T13:24:47;26.40;91.10
16267;DHT22;8241;48.786;9.250;2022-10-30T13:29:48;27.10;90.20
16267;DHT22;8241;48.786;9.250;2022-10-30T13:32:31;27.40;88.60
16267;DHT22;8241;48.786;9.250;2022-10-30T13:35:17;27.60;89.10
16267;DHT22;8241;48.786;9.250;2022-10-30T13:37:50;26.80;90.00
16267;DHT22;8241;48.786;9.250;2022-10-30T13:40:24;25.80;91.00
16267;DHT22;8241;48.786;9.250;2022-10-30T13:43:01;25.20;92.00
16267;DHT22;8241;48.786;9.250;2022-10-30T13:45:38;24.90;92.90
16267;DHT22;8241;48.786;9.250;2022-10-30T13:48:10;24.70;93.80
16267;DHT22;8241;48.786;9.250;2022-10-30T13:50:44;24.50;93.90
16267;DHT22;8241;48.786;9.250;2022-10-30T13:53:14;24.40;93.60
16267;DHT22;8241;48.786;9.250;2022-10-30T13:55:43;24.20;93.60
16267;DHT22;8241;48.786;9.250;2022-10-30T13:58:11;24.10;94.10
16267;DHT22;8241;48.786;9.250;2022-10-30T14:03:43;23.90;94.20
16267;DHT22;8241;48.786;9.250;2022-10-30T14:06:21;23.90;94.30
16267;DHT22;8241;48.786;9.250;2022-10-30T14:08:56;23.80;94.90
16267;DHT22;8241;48.786;9.250;2022-10-30T14:11:28;23.80;95.10
16267;DHT22;8241;48.786;9.250;2022-10-30T14:14:03;23.70;95.20
16267;DHT22;8241;48.786;9.250;2022-10-30T14:16:31;23.80;95.10
16267;DHT22;8241;48.786;9.250;2022-10-30T14:18:59;23.80;94.40
16267;DHT22;8241;48.786;9.250;2022-10-30T14:27:30;23.30;95.10
16267;DHT22;8241;48.786;9.250;2022-10-30T14:35:33;22.90;96.00
16267;DHT22;8241;48.786;9.250;2022-10-30T14:44:10;22.90;96.50
16267;DHT22;8241;48.786;9.250;2022-10-30T14:46:49;22.70;97.00
16267;DHT22;8241;48.786;9.250;2022-10-30T14:49:26;22.50;98.60
16267;DHT22;8241;48.786;9.250;2022-10-30T14:55:24;22.20;99.90
16267;DHT22;8241;48.786;9.250;2022-10-30T14:58:12;22.00;99.90
16267;DHT22;8241;48.786;9.250;2022-10-30T15:00:50;21.80;99.90
16267;DHT22;8241;48.786;9.250;2022-10-30T15:05:53;21.60;99.90
16267;DHT22;8241;48.786;9.250;2022-10-30T15:08:32;21.50;99.90
16267;DHT22;8241;48.786;9.250;2022-10-30T15:11:09;21.40;99.90
16267;DHT22;8241;48.786;9.250;2022-10-30T15:13:42;21.40;99.90
16267;DHT22;8241;48.786;9.250;2022-10-30T15:16:22;21.30;99.90
16267;DHT22;8241;48.786;9.250;2022-10-30T15:18:58;21.20;99.90
16267;DHT22;8241;48.786;9.250;2022-10-30T15:21:32;21.10;99.90
16267;DHT22;8241;48.786;9.250;2022-10-30T15:24:07;21.10;99.90
16267;DHT22;8241;48.786;9.250;2022-10-30T15:26:35;21.10;99.90
16267;DHT22;8241;48.786;9.250;2022-10-30T15:29:14;21.10;99.90
16267;DHT22;8241;48.786;9.250;2022-10-30T15:31:43;21.00;99.90
16267;DHT22;8241;48.786;9.250;2022-10-30T15:34:18;21.10;99.90
16267;DHT22;8241;48.786;9.250;2022-10-30T15:36:46;21.20;99.90
16267;DHT22;8241;48.786;9.250;2022-10-30T15:39:30;21.20;99.90
16267;DHT22;8241;48.786;9.250;2022-10-30T15:41:57;21.20;99.90
16267;DHT22;8241;48.786;9.250;2022-10-30T15:44:39;21.10;99.90
16267;DHT22;8241;48.786;9.250;2022-10-30T15:47:12;21.10;99.90
16267;DHT22;8241;48.786;9.250;2022-10-30T15:52:11;20.90;99.90
16267;DHT22;8241;48.786;9.250;2022-10-30T15:54:54;20.80;99.90
16267;DHT22;8241;48.786;9.250;2022-10-30T15:57:26;20.60;99.90
16267;DHT22;8241;48.786;9.250;2022-10-30T15:59:55;20.40;99.90
16267;DHT22;8241;48.786;9.250;2022-10-30T16:02:32;20.30;99.90
16267;DHT22;8241;48.786;9.250;2022-10-30T16:05:18;20.10;99.90
16267;DHT22;8241;48.786;9.250;2022-10-30T16:07:48;20.00;99.90
16267;DHT22;8241;48.786;9.250;2022-10-30T16:10:22;19.90;99.90
16267;DHT22;8241;48.786;9.250;2022-10-30T16:15:23;20.00;99.90
16267;DHT22;8241;48.786;9.250;2022-10-30T16:17:59;19.90;99.90
16267;DHT22;8241;48.786;9.250;2022-10-30T16:23:07;19.90;99.90
16267;DHT22;8241;48.786;9.250;2022-10-30T16:28:27;19.60;99.90
16267;DHT22;8241;48.786;9.250;2022-10-30T16:30:55;19.40;99.90
16267;DHT22;8241;48.786;9.250;2022-10-30T16:33:25;19.30;99.90
16267;DHT22;8241;48.786;9.250;2022-10-30T16:36:11;19.20;99.90
16267;DHT22;8241;48.786;9.250;2022-10-30T16:38:44;19.00;99.90
16267;DHT22;8241;48.786;9.250;2022-10-30T16:46:59;19.10;99.90
16267;DHT22;8241;48.786;9.250;2022-10-30T16:49:44;19.00;99.90
16267;DHT22;8241;48.786;9.250;2022-10-30T16:52:13;18.90;99.90
16267;DHT22;8241;48.786;9.250;2022-10-30T16:54:45;18.90;99.90
16267;DHT22;8241;48.786;9.250;2022-10-30T16:57:19;18.90;99.90
16267;DHT22;8241;48.786;9.250;2022-10-30T16:59:50;18.80;99.90
16267;DHT22;8241;48.786;9.250;2022-10-30T17:02:24;18.70;99.90
16267;DHT22;8241;48.786;9.250;2022-10-30T17:04:54;18.50;99.90
16267;DHT22;8241;48.786;9.250;2022-10-30T17:07:23;18.40;99.90
16267;DHT22;8241;48.786;9.250;2022-10-30T17:09:51;18.30;99.90
16267;DHT22;8241;48.786;9.250;2022-10-30T17:12:20;18.30;99.90
16267;DHT22;8241;48.786;9.250;2022-10-30T17:15:01;18.20;99.90
16267;DHT22;8241;48.786;9.250;2022-10-30T17:17:37;18.10;99.90
16267;DHT22;8241;48.786;9.250;2022-10-30T17:32:13;17.90;99.90
16267;DHT22;8241;48.786;9.250;2022-10-30T17:34:43;17.80;99.90
16267;DHT22;8241;48.786;9.250;2022-10-30T17:37:16;17.70;99.90
16267;DHT22;8241;48.786;9.250;2022-10-30T17:39:56;17.80;99.90
16267;DHT22;8241;48.786;9.250;2022-10-30T17:45:33;17.80;99.90
16267;DHT22;8241;48.786;9.250;2022-10-30T17:56:24;17.70;99.90
16267;DHT22;8241;48.786;9.250;2022-10-30T18:01:31;17.80;99.90
16267;DHT22;8241;48.786;9.250;2022-10-30T18:06:33;17.60;99.90
16267;DHT22;8241;48.786;9.250;2022-10-30T18:09:00;17.60;99.90
16267;DHT22;8241;48.786;9.250;2022-10-30T18:11:28;17.50;99.90
16267;DHT22;8241;48.786;9.250;2022-10-30T18:13:55;17.60;99.90
16267;DHT22;8241;48.786;9.250;2022-10-30T18:16:27;17.60;99.90
16267;DHT22;8241;48.786;9.250;2022-10-30T18:22:22;17.60;99.90
16267;DHT22;8241;48.786;9.250;2022-10-30T18:24:49;17.60;99.90
16267;DHT22;8241;48.786;9.250;2022-10-30T18:30:52;17.40;99.90
16267;DHT22;8241;48.786;9.250;2022-10-30T18:33:24;17.30;99.90
16267;DHT22;8241;48.786;9.250;2022-10-30T18:35:57;17.20;99.90
16267;DHT22;8241;48.786;9.250;2022-10-30T18:38:39;17.10;99.90
16267;DHT22;8241;48.786;9.250;2022-10-30T18:41:14;17.10;99.90
16267;DHT22;8241;48.786;9.250;2022-10-30T18:43:49;17.00;99.90
16267;DHT22;8241;48.786;9.250;2022-10-30T18:46:18;17.00;99.90
16267;DHT22;8241;48.786;9.250;2022-10-30T18:48:50;16.90;99.90
16267;DHT22;8241;48.786;9.250;2022-10-30T18:56:41;16.80;99.90
16267;DHT22;8241;48.786;9.250;2022-10-30T18:59:10;16.70;99.90
16267;DHT22;8241;48.786;9.250;2022-10-30T19:01:47;16.70;99.90
16267;DHT22;8241;48.786;9.250;2022-10-30T19:04:25;16.70;99.90
16267;DHT22;8241;48.786;9.250;2022-10-30T19:06:55;16.70;99.90
16267;DHT22;8241;48.786;9.250;2022-10-30T19:12:22;17.00;99.90
16267;DHT22;8241;48.786;9.250;2022-10-30T19:14:51;17.00;99.90
16267;DHT22;8241;48.786;9.250;2022-10-30T19:17:19;17.00;99.90
16267;DHT22;8241;48.786;9.250;2022-10-30T19:22:20;16.90;99.90
16267;DHT22;8241;48.786;9.250;2022-10-30T19:24:48;16.70;99.90
16267;DHT22;8241;48.786;9.250;2022-10-30T19:27:15;16.70;99.90
16267;DHT22;8241;48.786;9.250;2022-10-30T19:29:42;16.60;99.90
16267;DHT22;8241;48.786;9.250;2022-10-30T19:32:09;16.60;99.90
16267;DHT22;8241;48.786;9.250;2022-10-30T19:34:37;16.50;99.90
16267;DHT22;8241;48.786;9.250;2022-10-30T19:37:10;16.50;99.90
16267;DHT22;8241;48.786;9.250;2022-10-30T19:39:36;16.40;99.90
16267;DHT22;8241;48.786;9.250;2022-10-30T19:42:08;16.30;99.90
16267;DHT22;8241;48.786;9.250;2022-10-30T19:44:39;16.30;99.90
16267;DHT22;8241;48.786;9.250;2022-10-30T19:47:06;16.40;99.90
16267;DHT22;8241;48.786;9.250;2022-10-30T19:49:33;16.30;99.90
16267;DHT22;8241;48.786;9.250;2022-10-30T19:57:35;16.30;99.90
16267;DHT22;8241;48.786;9.250;2022-10-30T20:00:20;16.20;99.90
16267;DHT22;8241;48.786;9.250;2022-10-30T20:05:33;16.20;99.90
16267;DHT22;8241;48.786;9.250;2022-10-30T20:10:43;16.30;99.90
16267;DHT22;8241;48.786;9.250;2022-10-30T20:16:02;16.00;99.90
16267;DHT22;8241;48.786;9.250;2022-10-30T20:18:30;16.00;99.90
16267;DHT22;8241;48.786;9.250;2022-10-30T20:20:58;15.90;99.90
16267;DHT22;8241;48.786;9.250;2022-10-30T20:26:30;15.70;99.90
16267;DHT22;8241;48.786;9.250;2022-10-30T20:28:59;15.70;99.90
16267;DHT22;8241;48.786;9.250;2022-10-30T20:31:29;15.70;99.90